Volgoneft-114 — UBEI4 — position and weather

sailwx.info

Track history (hours):
 
Tides and Currents Weather Stations Pressure Air Temp Water Temp Dewpoint Dewpoint Depression Visibility Wind Speed Wind Dir Waves Ship Positions

Volgoneft-114

Last reported at 2018-Jun-24 13:37 UTC. Time now 2018-Jun-25 19:41 UTC.
Position N 45°29' E 036°44'.

Length 132 m; draft 2.6 m.

Type: Tanker. MMSI: 273355350.

Date/timePositionNaut miles runAvg speedWind from/ knotsBaromVisibWave heightAir tempDewpointWater temp
2018-Jun-24 13:37N 45°29' E 036°44'1 8.0
2018-Jun-24 13:29N 45°29' E 036°43'4 7.6
2018-Jun-24 13:00N 45°25' E 036°41'4 7.2
2018-Jun-24 12:30N 45°22' E 036°40'3 6.9
2018-Jun-24 12:00N 45°20' E 036°36'4 7.7
2018-Jun-24 11:30N 45°19' E 036°31'3 6.8
2018-Jun-24 11:00N 45°16' E 036°28'2 3.0
2018-Jun-24 10:26N 45°14' E 036°30'0 0.0
2018-Jun-24 09:45N 45°14' E 036°30'0 0.1
2018-Jun-24 09:27N 45°14' E 036°30'1 1.8
2018-Jun-24 09:00N 45°14' E 036°29'7 0.3
2018-Jun-23 11:47N 45°07' E 036°32'0 0.0
2018-Jun-23 11:17N 45°07' E 036°32'0 0.0
2018-Jun-23 10:57N 45°07' E 036°32'3 5.3
2018-Jun-23 10:26N 45°09' E 036°30'2 5.6
2018-Jun-23 10:00N 45°11' E 036°28'6 5.2
2018-Jun-23 08:56N 45°17' E 036°29'3 6.0
2018-Jun-23 08:28N 45°19' E 036°32'3 5.7
2018-Jun-23 08:00N 45°20' E 036°35'3 5.5
2018-Jun-23 07:30N 45°21' E 036°39'2 4.6
2018-Jun-23 07:00N 45°23' E 036°40'2 3.0
2018-Jun-23 06:30N 45°24' E 036°42'6 0.4
2018-Jun-22 13:34N 45°29' E 036°45'0 0.1
2018-Jun-22 13:28N 45°29' E 036°45'0 0.0
2018-Jun-21 16:04N 45°29' E 036°45'0 0.0
2018-Jun-21 05:04N 45°29' E 036°45'0 0.0
2018-Jun-21 04:34N 45°29' E 036°45'0 0.1
2018-Jun-21 04:25N 45°29' E 036°45'0 0.0
2018-Jun-21 02:07N 45°29' E 036°45'0 0.0
2018-Jun-21 01:58N 45°29' E 036°45'0 0.1
2018-Jun-21 01:28N 45°29' E 036°45'0 0.0
2018-Jun-20 18:34N 45°29' E 036°45'0 0.0
2018-Jun-20 18:04N 45°29' E 036°45'0 0.0
2018-Jun-20 17:04N 45°29' E 036°45'0 0.0
2018-Jun-20 16:46N 45°29' E 036°45'0 0.0
2018-Jun-20 16:28N 45°29' E 036°45'0 0.1
2018-Jun-20 15:55N 45°29' E 036°45'0 0.2
2018-Jun-20 15:23N 45°29' E 036°45'1 2.2
2018-Jun-20 15:00N 45°30' E 036°46'4 8.0
2018-Jun-20 14:30N 45°34' E 036°49'4 8.5
2018-Jun-20 14:00N 45°38' E 036°51'4 8.5
2018-Jun-20 13:30N 45°42' E 036°53'4 8.4
2018-Jun-20 13:00N 45°46' E 036°55'5 8.4
2018-Jun-20 12:25N 45°50' E 036°58'3 8.4
2018-Jun-20 12:00N 45°53' E 036°59'  
Track history (hours):
 
Tides and Currents Weather Stations Pressure Air Temp Water Temp Dewpoint Dewpoint Depression Visibility Wind Speed Wind Dir Waves Ship Positions

Volgoneft-114

Last reported at 2018-Jun-24 13:37 UTC. Time now 2018-Jun-25 19:41 UTC.
Position N 45°29' E 036°44'.

Length 132 m; draft 2.6 m.

Type: Tanker. MMSI: 273355350.

Date/timePositionNaut miles runAvg speedWind from/ knotsBaromVisibWave heightAir tempDewpointWater temp
2018-Jun-24 13:37N 45°29' E 036°44'1 8.0
2018-Jun-24 13:29N 45°29' E 036°43'4 7.6
2018-Jun-24 13:00N 45°25' E 036°41'4 7.2
2018-Jun-24 12:30N 45°22' E 036°40'3 6.9
2018-Jun-24 12:00N 45°20' E 036°36'4 7.7
2018-Jun-24 11:30N 45°19' E 036°31'3 6.8
2018-Jun-24 11:00N 45°16' E 036°28'2 3.0
2018-Jun-24 10:26N 45°14' E 036°30'0 0.0
2018-Jun-24 09:45N 45°14' E 036°30'0 0.1
2018-Jun-24 09:27N 45°14' E 036°30'1 1.8
2018-Jun-24 09:00N 45°14' E 036°29'7 0.3
2018-Jun-23 11:47N 45°07' E 036°32'0 0.0
2018-Jun-23 11:17N 45°07' E 036°32'0 0.0
2018-Jun-23 10:57N 45°07' E 036°32'3 5.3
2018-Jun-23 10:26N 45°09' E 036°30'2 5.6
2018-Jun-23 10:00N 45°11' E 036°28'6 5.2
2018-Jun-23 08:56N 45°17' E 036°29'3 6.0
2018-Jun-23 08:28N 45°19' E 036°32'3 5.7
2018-Jun-23 08:00N 45°20' E 036°35'3 5.5
2018-Jun-23 07:30N 45°21' E 036°39'2 4.6
2018-Jun-23 07:00N 45°23' E 036°40'2 3.0
2018-Jun-23 06:30N 45°24' E 036°42'6 0.4
2018-Jun-22 13:34N 45°29' E 036°45'0 0.1
2018-Jun-22 13:28N 45°29' E 036°45'0 0.0
2018-Jun-21 16:04N 45°29' E 036°45'0 0.0
2018-Jun-21 05:04N 45°29' E 036°45'0 0.0
2018-Jun-21 04:34N 45°29' E 036°45'0 0.1
2018-Jun-21 04:25N 45°29' E 036°45'0 0.0
2018-Jun-21 02:07N 45°29' E 036°45'0 0.0
2018-Jun-21 01:58N 45°29' E 036°45'0 0.1
2018-Jun-21 01:28N 45°29' E 036°45'0 0.0
2018-Jun-20 18:34N 45°29' E 036°45'0 0.0
2018-Jun-20 18:04N 45°29' E 036°45'0 0.0
2018-Jun-20 17:04N 45°29' E 036°45'0 0.0
2018-Jun-20 16:46N 45°29' E 036°45'0 0.0
2018-Jun-20 16:28N 45°29' E 036°45'0 0.1
2018-Jun-20 15:55N 45°29' E 036°45'0 0.2
2018-Jun-20 15:23N 45°29' E 036°45'1 2.2
2018-Jun-20 15:00N 45°30' E 036°46'4 8.0
2018-Jun-20 14:30N 45°34' E 036°49'4 8.5
2018-Jun-20 14:00N 45°38' E 036°51'4 8.5
2018-Jun-20 13:30N 45°42' E 036°53'4 8.4
2018-Jun-20 13:00N 45°46' E 036°55'5 8.4
2018-Jun-20 12:25N 45°50' E 036°58'3 8.4
2018-Jun-20 12:00N 45°53' E 036°59'  

Dump ship's entire track history